createdAt,value
2019-01-23T00:00:54.171Z,975.59
2019-01-23T00:01:54.216Z,975.54
2019-01-23T00:02:54.164Z,975.61
2019-01-23T00:03:54.156Z,975.53
2019-01-23T00:04:54.130Z,975.49
2019-01-23T00:05:54.171Z,975.51
2019-01-23T00:06:54.126Z,975.44
2019-01-23T00:07:54.181Z,975.46
2019-01-23T00:08:54.087Z,975.42
2019-01-23T00:09:54.083Z,975.38
2019-01-23T00:10:54.086Z,975.38
2019-01-23T00:11:54.061Z,975.39
2019-01-23T00:12:54.048Z,975.39
2019-01-23T00:13:54.053Z,975.30
2019-01-23T00:14:54.038Z,975.34
2019-01-23T00:15:54.018Z,975.32
2019-01-23T00:16:54.010Z,975.31
2019-01-23T00:17:54.002Z,975.34
2019-01-23T00:18:54.005Z,975.24
2019-01-23T00:19:54.074Z,975.25
2019-01-23T00:20:53.992Z,975.22
2019-01-23T00:21:53.979Z,975.16
2019-01-23T00:22:54.001Z,975.15
2019-01-23T00:23:53.953Z,975.16
2019-01-23T00:24:53.923Z,975.12
2019-01-23T00:25:53.927Z,975.07
2019-01-23T00:26:53.920Z,975.06
2019-01-23T00:27:53.895Z,975.05
2019-01-23T00:28:53.924Z,975.06
2019-01-23T00:29:53.881Z,975.04
2019-01-23T00:30:53.921Z,974.98
2019-01-23T00:31:53.851Z,974.93
2019-01-23T00:32:53.845Z,974.92
2019-01-23T00:33:53.857Z,974.89
2019-01-23T00:34:53.870Z,974.89
2019-01-23T00:35:53.854Z,974.87
2019-01-23T00:36:53.802Z,974.88
2019-01-23T00:37:53.833Z,974.88
2019-01-23T00:38:53.831Z,974.83
2019-01-23T00:39:53.791Z,974.81
2019-01-23T00:40:53.790Z,974.78
2019-01-23T00:41:53.759Z,974.78
2019-01-23T00:42:53.743Z,974.75
2019-01-23T00:43:53.788Z,974.78
2019-01-23T00:44:53.850Z,974.74
2019-01-23T00:45:53.722Z,974.69
2019-01-23T00:46:53.720Z,974.73
2019-01-23T00:47:53.719Z,974.76
2019-01-23T00:48:53.764Z,974.77
2019-01-23T00:49:53.677Z,974.70
2019-01-23T00:50:53.681Z,974.68
2019-01-23T00:51:53.650Z,974.71
2019-01-23T00:52:53.640Z,974.62
2019-01-23T00:53:53.666Z,974.59
2019-01-23T00:54:53.648Z,974.60
2019-01-23T00:55:53.630Z,974.59
2019-01-23T00:56:53.598Z,974.56
2019-01-23T00:57:53.605Z,974.60
2019-01-23T00:58:53.598Z,974.55
2019-01-23T00:59:53.572Z,974.48
2019-01-23T01:00:53.601Z,974.46
2019-01-23T01:01:53.731Z,974.46
2019-01-23T01:02:53.539Z,974.49
2019-01-23T01:03:53.548Z,974.46
2019-01-23T01:04:53.523Z,974.44
2019-01-23T01:05:53.548Z,974.41
2019-01-23T01:06:53.539Z,974.42
2019-01-23T01:07:53.484Z,974.41
2019-01-23T01:08:53.507Z,974.42
2019-01-23T01:09:53.506Z,974.40
2019-01-23T01:10:53.485Z,974.39
2019-01-23T01:11:53.466Z,974.40
2019-01-23T01:12:53.436Z,974.35
2019-01-23T01:13:53.528Z,974.36
2019-01-23T01:14:53.417Z,974.32
2019-01-23T01:15:53.453Z,974.34
2019-01-23T01:16:53.395Z,974.28
2019-01-23T01:17:53.430Z,974.24
2019-01-23T01:18:53.399Z,974.30
2019-01-23T01:19:53.423Z,974.27
2019-01-23T01:20:53.358Z,974.23
2019-01-23T01:21:53.349Z,974.25
2019-01-23T01:22:53.337Z,974.18
2019-01-23T01:23:53.349Z,974.16
2019-01-23T01:24:53.316Z,974.15
2019-01-23T01:25:53.383Z,974.09
2019-01-23T01:26:53.294Z,974.10
2019-01-23T01:27:53.312Z,974.02
2019-01-23T01:28:56.039Z,974.01
2019-01-23T01:29:53.294Z,974.05
2019-01-23T01:30:53.297Z,974.02
2019-01-23T01:31:53.244Z,973.99
2019-01-23T01:32:53.237Z,973.97
2019-01-23T01:33:53.258Z,973.98
2019-01-23T01:34:53.283Z,973.94
2019-01-23T01:35:53.207Z,973.97
2019-01-23T01:36:53.195Z,973.94
2019-01-23T01:37:53.188Z,973.89
2019-01-23T01:38:53.238Z,973.92
2019-01-23T01:39:53.211Z,973.89
2019-01-23T01:40:53.210Z,973.89
2019-01-23T01:41:53.157Z,973.85
2019-01-23T01:42:53.135Z,973.82
2019-01-23T01:43:53.146Z,973.83
2019-01-23T01:44:53.144Z,973.85
2019-01-23T01:45:53.105Z,973.78
2019-01-23T01:46:53.099Z,973.77
2019-01-23T01:47:53.109Z,973.85
2019-01-23T01:48:53.124Z,973.81
2019-01-23T01:49:53.072Z,973.77
2019-01-23T01:50:53.049Z,973.77
2019-01-23T01:51:53.039Z,973.81
2019-01-23T01:52:53.061Z,973.81
2019-01-23T01:53:53.058Z,973.73
2019-01-23T01:54:53.009Z,973.75
2019-01-23T01:55:53.002Z,973.79
2019-01-23T01:56:52.990Z,973.76
2019-01-23T01:57:52.979Z,973.68
2019-01-23T01:58:52.972Z,973.72
2019-01-23T01:59:52.975Z,973.73
2019-01-23T02:00:52.948Z,973.66
2019-01-23T02:01:52.938Z,973.67
2019-01-23T02:02:52.956Z,973.73
2019-01-23T02:03:52.924Z,973.70
2019-01-23T02:04:52.931Z,973.72
2019-01-23T02:05:52.916Z,973.72
2019-01-23T02:06:52.909Z,973.68
2019-01-23T02:07:52.876Z,973.68
2019-01-23T02:08:52.868Z,973.65
2019-01-23T02:09:52.893Z,973.58
2019-01-23T02:10:52.844Z,973.61
2019-01-23T02:11:52.865Z,973.56
2019-01-23T02:12:52.829Z,973.56
2019-01-23T02:13:52.815Z,973.56
2019-01-23T02:14:53.017Z,973.52
2019-01-23T02:15:52.798Z,973.57
2019-01-23T02:16:52.783Z,973.53
2019-01-23T02:17:52.781Z,973.55
2019-01-23T02:18:52.781Z,973.54
2019-01-23T02:19:52.791Z,973.50
2019-01-23T02:20:52.779Z,973.52
2019-01-23T02:21:52.732Z,973.43
2019-01-23T02:22:52.764Z,973.49
2019-01-23T02:23:52.710Z,973.46
2019-01-23T02:24:52.699Z,973.46
2019-01-23T02:25:52.736Z,973.50
2019-01-23T02:26:52.693Z,973.41
2019-01-23T02:27:52.693Z,973.42
2019-01-23T02:28:52.658Z,973.39
2019-01-23T02:29:52.660Z,973.47
2019-01-23T02:30:52.660Z,973.35
2019-01-23T02:31:52.635Z,973.42
2019-01-23T02:32:52.681Z,973.36
2019-01-23T02:33:52.653Z,973.38
2019-01-23T02:34:52.613Z,973.40
2019-01-23T02:35:52.647Z,973.36
2019-01-23T02:36:52.584Z,973.35
2019-01-23T02:37:52.610Z,973.34
2019-01-23T02:38:52.573Z,973.35
2019-01-23T02:39:52.578Z,973.34
2019-01-23T02:40:52.534Z,973.35
2019-01-23T02:41:52.569Z,973.31
2019-01-23T02:42:52.551Z,973.32
2019-01-23T02:43:52.591Z,973.26
2019-01-23T02:44:52.496Z,973.27
2019-01-23T02:45:52.490Z,973.26
2019-01-23T02:46:52.494Z,973.21
2019-01-23T02:47:52.466Z,973.21
2019-01-23T02:48:52.458Z,973.16
2019-01-23T02:49:52.458Z,973.16
2019-01-23T02:50:52.453Z,973.10
2019-01-23T02:51:52.462Z,973.20
2019-01-23T02:52:52.424Z,973.16
2019-01-23T02:53:52.406Z,973.13
2019-01-23T02:54:52.418Z,973.08
2019-01-23T02:55:52.387Z,973.14
2019-01-23T02:56:52.665Z,973.13
2019-01-23T02:57:52.376Z,973.13
2019-01-23T02:58:52.363Z,973.09
2019-01-23T02:59:52.366Z,973.12
2019-01-23T03:00:52.330Z,973.12
2019-01-23T03:01:52.327Z,973.17
2019-01-23T03:02:52.336Z,973.13
2019-01-23T03:03:52.321Z,973.11
2019-01-23T03:04:52.327Z,973.08
2019-01-23T03:05:52.286Z,973.08
2019-01-23T03:06:52.305Z,973.07
2019-01-23T03:07:52.291Z,973.16
2019-01-23T03:08:52.260Z,973.13
2019-01-23T03:09:52.239Z,973.14
2019-01-23T03:10:52.251Z,973.09
2019-01-23T03:11:52.218Z,973.10
2019-01-23T03:12:52.248Z,973.09
2019-01-23T03:13:52.214Z,973.09
2019-01-23T03:14:52.236Z,973.02
2019-01-23T03:15:52.190Z,973.10
2019-01-23T03:16:52.169Z,973.07
2019-01-23T03:17:52.174Z,973.08
2019-01-23T03:18:52.166Z,973.05
2019-01-23T03:19:52.192Z,973.04
2019-01-23T03:20:52.169Z,973.03
2019-01-23T03:21:52.132Z,973.06
2019-01-23T03:22:52.127Z,973.05
2019-01-23T03:23:52.120Z,973.04
2019-01-23T03:24:52.087Z,973.01
2019-01-23T03:25:52.151Z,973.03
2019-01-23T03:26:52.106Z,972.98
2019-01-23T03:27:52.065Z,973.02
2019-01-23T03:28:52.088Z,973.04
2019-01-23T03:29:52.110Z,972.99
2019-01-23T03:30:52.039Z,972.99
2019-01-23T03:31:52.017Z,972.96
2019-01-23T03:32:52.007Z,972.95
2019-01-23T03:33:52.011Z,972.96
2019-01-23T03:34:52.037Z,972.96
2019-01-23T03:35:51.971Z,972.91
2019-01-23T03:36:51.961Z,972.93
2019-01-23T03:37:51.995Z,972.89
2019-01-23T03:38:51.958Z,972.93
2019-01-23T03:39:51.955Z,972.88
2019-01-23T03:40:51.973Z,972.90
2019-01-23T03:41:51.950Z,972.95
2019-01-23T03:42:51.933Z,972.89
2019-01-23T03:43:51.904Z,972.90
2019-01-23T03:44:51.945Z,972.84
2019-01-23T03:45:51.890Z,972.89
2019-01-23T03:46:51.902Z,972.86
2019-01-23T03:47:51.854Z,972.87
2019-01-23T03:48:51.844Z,972.85
2019-01-23T03:49:51.844Z,972.80
2019-01-23T03:50:51.893Z,972.79
2019-01-23T03:51:51.806Z,972.84
2019-01-23T03:52:51.833Z,972.78
2019-01-23T03:53:51.793Z,972.75
2019-01-23T03:54:51.822Z,972.80
2019-01-23T03:55:51.834Z,972.79
2019-01-23T03:56:51.767Z,972.78
2019-01-23T03:57:51.754Z,972.68
2019-01-23T03:58:51.736Z,972.67
2019-01-23T03:59:51.722Z,972.76
2019-01-23T04:00:51.758Z,972.70
2019-01-23T04:01:51.715Z,972.65
2019-01-23T04:02:51.766Z,972.69
2019-01-23T04:03:51.692Z,972.68
2019-01-23T04:04:51.704Z,972.64
2019-01-23T04:05:51.696Z,972.63
2019-01-23T04:06:51.710Z,972.62
2019-01-23T04:07:51.646Z,972.60
2019-01-23T04:08:51.664Z,972.55
2019-01-23T04:09:51.625Z,972.52
2019-01-23T04:10:51.673Z,972.57
2019-01-23T04:11:51.657Z,972.53
2019-01-23T04:12:51.596Z,972.54
2019-01-23T04:13:51.580Z,972.47
2019-01-23T04:14:51.566Z,972.52
2019-01-23T04:15:51.555Z,972.46
2019-01-23T04:16:51.561Z,972.43
2019-01-23T04:17:51.551Z,972.44
2019-01-23T04:18:51.526Z,972.45
2019-01-23T04:19:51.539Z,972.43
2019-01-23T04:20:51.549Z,972.50
2019-01-23T04:21:51.510Z,972.42
2019-01-23T04:22:51.518Z,972.40
2019-01-23T04:23:51.537Z,972.40
2019-01-23T04:24:51.475Z,972.41
2019-01-23T04:25:51.496Z,972.43
2019-01-23T04:26:51.472Z,972.37
2019-01-23T04:27:51.433Z,972.35
2019-01-23T04:28:51.501Z,972.37
2019-01-23T04:29:51.440Z,972.29
2019-01-23T04:30:51.404Z,972.38
2019-01-23T04:31:51.410Z,972.38
2019-01-23T04:32:51.449Z,972.31
2019-01-23T04:33:51.371Z,972.32
2019-01-23T04:34:51.402Z,972.29
2019-01-23T04:35:51.355Z,972.32
2019-01-23T04:36:51.382Z,972.25
2019-01-23T04:37:51.346Z,972.26
2019-01-23T04:38:51.322Z,972.23
2019-01-23T04:39:51.309Z,972.22
2019-01-23T04:40:51.336Z,972.22
2019-01-23T04:41:51.288Z,972.17
2019-01-23T04:42:51.306Z,972.17
2019-01-23T04:43:51.312Z,972.12
2019-01-23T04:44:51.344Z,972.13
2019-01-23T04:45:51.269Z,972.13
2019-01-23T04:46:51.264Z,972.08
2019-01-23T04:47:51.269Z,972.06
2019-01-23T04:48:51.253Z,972.06
2019-01-23T04:49:51.251Z,972.04
2019-01-23T04:50:51.200Z,971.96
2019-01-23T04:51:51.198Z,971.96
2019-01-23T04:52:51.223Z,971.92
2019-01-23T04:53:51.191Z,972.02
2019-01-23T04:54:51.182Z,971.96
2019-01-23T04:55:51.147Z,971.87
2019-01-23T04:56:51.148Z,971.95
2019-01-23T04:57:51.213Z,971.90
2019-01-23T04:58:51.113Z,971.90
2019-01-23T04:59:51.116Z,971.82
2019-01-23T05:00:51.134Z,971.88
2019-01-23T05:01:51.098Z,971.92
2019-01-23T05:02:51.135Z,971.80
2019-01-23T05:03:51.079Z,971.85
2019-01-23T05:04:51.062Z,971.78
2019-01-23T05:05:51.091Z,971.86
2019-01-23T05:06:51.030Z,971.82
2019-01-23T05:07:51.079Z,971.77
2019-01-23T05:08:51.026Z,971.85
2019-01-23T05:09:51.024Z,971.76
2019-01-23T05:10:51.045Z,971.77
2019-01-23T05:11:50.990Z,971.72
2019-01-23T05:12:51.015Z,971.73
2019-01-23T05:13:50.978Z,971.75
2019-01-23T05:14:50.949Z,971.76
2019-01-23T05:15:50.976Z,971.66
2019-01-23T05:16:50.961Z,971.69
2019-01-23T05:17:50.940Z,971.66
2019-01-23T05:18:50.913Z,971.71
2019-01-23T05:19:50.901Z,971.68
2019-01-23T05:20:50.893Z,971.64
2019-01-23T05:21:50.878Z,971.64
2019-01-23T05:22:50.897Z,971.65
2019-01-23T05:23:50.888Z,971.61
2019-01-23T05:24:50.891Z,971.62
2019-01-23T05:25:50.836Z,971.65
2019-01-23T05:26:50.826Z,971.65
2019-01-23T05:27:50.863Z,971.59
2019-01-23T05:28:50.852Z,971.58
2019-01-23T05:29:55.068Z,971.59
2019-01-23T05:30:50.783Z,971.60
2019-01-23T05:31:50.876Z,971.56
2019-01-23T05:32:50.788Z,971.57
2019-01-23T05:33:50.754Z,971.57
2019-01-23T05:34:50.742Z,971.59
2019-01-23T05:35:50.738Z,971.55
2019-01-23T05:36:50.728Z,971.53
2019-01-23T05:37:50.804Z,971.54
2019-01-23T05:38:50.730Z,971.56
2019-01-23T05:39:50.751Z,971.53
2019-01-23T05:40:50.702Z,971.52
2019-01-23T05:41:50.682Z,971.56
2019-01-23T05:42:50.728Z,971.54
2019-01-23T05:43:50.707Z,971.56
2019-01-23T05:44:50.638Z,971.54
2019-01-23T05:45:50.629Z,971.52
2019-01-23T05:46:50.617Z,971.52
2019-01-23T05:47:50.694Z,971.59
2019-01-23T05:48:50.621Z,971.57
2019-01-23T05:49:50.587Z,971.57
2019-01-23T05:50:50.579Z,971.48
2019-01-23T05:51:50.571Z,971.51
2019-01-23T05:52:50.567Z,971.50
2019-01-23T05:53:50.631Z,971.48
2019-01-23T05:54:50.538Z,971.47
2019-01-23T05:55:50.534Z,971.54
2019-01-23T05:56:50.604Z,971.44
2019-01-23T05:57:50.529Z,971.50
2019-01-23T05:58:50.529Z,971.47
2019-01-23T05:59:50.505Z,971.44
2019-01-23T06:00:50.488Z,971.44
2019-01-23T06:01:50.469Z,971.45
2019-01-23T06:02:50.534Z,971.43
2019-01-23T06:03:50.501Z,971.41
2019-01-23T06:04:50.457Z,971.44
2019-01-23T06:05:50.462Z,971.46
2019-01-23T06:06:50.415Z,971.46
2019-01-23T06:07:50.440Z,971.46
2019-01-23T06:08:50.412Z,971.46
2019-01-23T06:09:50.382Z,971.44
2019-01-23T06:10:50.374Z,971.41
2019-01-23T06:11:50.376Z,971.45
2019-01-23T06:12:50.351Z,971.43
2019-01-23T06:13:50.390Z,971.47
2019-01-23T06:14:50.330Z,971.43
2019-01-23T06:15:50.333Z,971.39
2019-01-23T06:16:50.307Z,971.36
2019-01-23T06:17:50.334Z,971.42
2019-01-23T06:18:50.336Z,971.42
2019-01-23T06:19:50.312Z,971.37
2019-01-23T06:20:50.268Z,971.35
2019-01-23T06:21:50.260Z,971.36
2019-01-23T06:22:50.249Z,971.38
2019-01-23T06:23:50.254Z,971.35
2019-01-23T06:24:50.241Z,971.41
2019-01-23T06:25:50.214Z,971.40
2019-01-23T06:26:50.243Z,971.32
2019-01-23T06:27:50.252Z,971.39
2019-01-23T06:28:50.208Z,971.37
2019-01-23T06:29:50.205Z,971.36
2019-01-23T06:30:50.176Z,971.31
2019-01-23T06:31:50.190Z,971.31
2019-01-23T06:32:50.141Z,971.38
2019-01-23T06:33:50.168Z,971.36
2019-01-23T06:34:50.128Z,971.34
2019-01-23T06:35:50.112Z,971.38
2019-01-23T06:36:50.102Z,971.32
2019-01-23T06:37:50.093Z,971.37
2019-01-23T06:38:50.116Z,971.35
2019-01-23T06:39:50.087Z,971.39
2019-01-23T06:40:50.066Z,971.37
2019-01-23T06:41:50.057Z,971.37
2019-01-23T06:42:50.050Z,971.42
2019-01-23T06:43:50.047Z,971.38
2019-01-23T06:44:50.045Z,971.38
2019-01-23T06:45:50.014Z,971.39
2019-01-23T06:46:50.045Z,971.41
2019-01-23T06:47:50.001Z,971.37
2019-01-23T06:48:50.016Z,971.36
2019-01-23T06:49:49.969Z,971.34
2019-01-23T06:50:49.997Z,971.38
2019-01-23T06:51:49.991Z,971.33
2019-01-23T06:52:49.945Z,971.28
2019-01-23T06:53:49.946Z,971.26
2019-01-23T06:54:49.966Z,971.30
2019-01-23T06:55:49.906Z,971.30
2019-01-23T06:56:49.921Z,971.33
2019-01-23T06:57:49.885Z,971.32
2019-01-23T06:58:49.896Z,971.29
2019-01-23T06:59:49.893Z,971.33
2019-01-23T07:00:49.878Z,971.32
2019-01-23T07:01:49.881Z,971.26
2019-01-23T07:02:49.889Z,971.29
2019-01-23T07:03:49.869Z,971.27
2019-01-23T07:04:49.879Z,971.26
2019-01-23T07:05:49.804Z,971.22
2019-01-23T07:06:49.832Z,971.24
2019-01-23T07:07:49.783Z,971.25
2019-01-23T07:08:49.806Z,971.24
2019-01-23T07:09:49.780Z,971.22
2019-01-23T07:10:49.785Z,971.28
2019-01-23T07:11:49.747Z,971.25
2019-01-23T07:12:49.763Z,971.21
2019-01-23T07:13:49.758Z,971.23
2019-01-23T07:14:49.757Z,971.22
2019-01-23T07:15:49.716Z,971.21
2019-01-23T07:16:49.694Z,971.23
2019-01-23T07:17:49.691Z,971.24
2019-01-23T07:18:49.689Z,971.16
2019-01-23T07:19:49.711Z,971.24
2019-01-23T07:20:49.689Z,971.21
2019-01-23T07:21:49.669Z,971.15
2019-01-23T07:22:49.631Z,971.23
2019-01-23T07:23:49.657Z,971.21
2019-01-23T07:24:49.621Z,971.18
2019-01-23T07:25:49.615Z,971.17
2019-01-23T07:26:50.592Z,971.21
2019-01-23T07:27:49.649Z,971.15
2019-01-23T07:28:49.567Z,971.21
2019-01-23T07:29:49.591Z,971.15
2019-01-23T07:30:49.597Z,971.20
2019-01-23T07:31:49.536Z,971.13
2019-01-23T07:32:49.596Z,971.17
2019-01-23T07:33:49.565Z,971.17
2019-01-23T07:34:49.515Z,971.16
2019-01-23T07:35:49.847Z,971.14
2019-01-23T07:36:49.507Z,971.11
2019-01-23T07:37:49.480Z,971.14
2019-01-23T07:38:49.507Z,971.13
2019-01-23T07:39:49.469Z,971.15
2019-01-23T07:40:49.518Z,971.08
2019-01-23T07:41:49.499Z,971.06
2019-01-23T07:42:49.493Z,971.08
2019-01-23T07:43:49.493Z,971.04
2019-01-23T07:44:49.428Z,971.06
2019-01-23T07:45:49.457Z,971.02
2019-01-23T07:46:49.423Z,970.97
2019-01-23T07:47:49.374Z,970.99
2019-01-23T07:48:49.370Z,971.00
2019-01-23T07:49:49.429Z,970.93
2019-01-23T07:50:49.362Z,970.92
2019-01-23T07:51:49.349Z,970.92
2019-01-23T07:52:49.319Z,970.98
2019-01-23T07:53:49.323Z,970.94
2019-01-23T07:54:49.312Z,970.97
2019-01-23T07:55:49.882Z,970.95
2019-01-23T07:56:49.299Z,970.95
2019-01-23T07:57:49.291Z,970.98
2019-01-23T07:58:49.264Z,970.97
2019-01-23T07:59:49.246Z,970.98
2019-01-23T08:00:49.289Z,970.96
2019-01-23T08:01:49.289Z,970.91
2019-01-23T08:02:49.216Z,970.93
2019-01-23T08:03:49.258Z,970.91
2019-01-23T08:04:49.196Z,970.85
2019-01-23T08:05:49.260Z,970.90
2019-01-23T08:06:49.180Z,970.87
2019-01-23T08:07:49.183Z,970.85
2019-01-23T08:08:49.156Z,970.92
2019-01-23T08:09:49.159Z,970.90
2019-01-23T08:10:49.178Z,970.83
2019-01-23T08:11:49.141Z,970.80
2019-01-23T08:12:49.124Z,970.84
2019-01-23T08:13:49.134Z,970.77
2019-01-23T08:14:49.142Z,970.76
2019-01-23T08:15:49.309Z,970.82
2019-01-23T08:16:49.118Z,970.75
2019-01-23T08:17:49.064Z,970.78
2019-01-23T08:18:49.098Z,970.70
2019-01-23T08:19:49.069Z,970.76
2019-01-23T08:20:49.053Z,970.69
2019-01-23T08:21:49.057Z,970.69
2019-01-23T08:22:49.032Z,970.69
2019-01-23T08:23:49.045Z,970.71
2019-01-23T08:24:49.031Z,970.75
2019-01-23T08:25:48.981Z,970.72
2019-01-23T08:26:48.989Z,970.74
2019-01-23T08:27:48.960Z,970.73
2019-01-23T08:28:48.967Z,970.75
2019-01-23T08:29:48.963Z,970.78
2019-01-23T08:30:48.942Z,970.79
2019-01-23T08:31:48.976Z,970.71
2019-01-23T08:32:48.915Z,970.78
2019-01-23T08:33:48.975Z,970.70
2019-01-23T08:34:48.916Z,970.76
2019-01-23T08:35:48.886Z,970.75
2019-01-23T08:36:48.947Z,970.75
2019-01-23T08:37:48.931Z,970.80
2019-01-23T08:38:48.846Z,970.74
2019-01-23T08:39:50.509Z,970.75
2019-01-23T08:40:48.868Z,970.78
2019-01-23T08:41:48.870Z,970.76
2019-01-23T08:42:49.575Z,970.77
2019-01-23T08:43:48.794Z,970.77
2019-01-23T08:44:48.788Z,970.78
2019-01-23T08:45:48.779Z,970.79
2019-01-23T08:46:48.798Z,970.81
2019-01-23T08:47:48.755Z,970.82
2019-01-23T08:48:48.797Z,970.81
2019-01-23T08:49:48.736Z,970.81
2019-01-23T08:50:48.756Z,970.79
2019-01-23T08:51:48.729Z,970.80
2019-01-23T08:52:48.755Z,970.86
2019-01-23T08:53:48.745Z,970.83
2019-01-23T08:54:48.692Z,970.79
2019-01-23T08:55:53.487Z,970.82
2019-01-23T08:56:49.697Z,970.81
2019-01-23T08:57:48.650Z,970.77
2019-01-23T08:58:48.646Z,970.78
2019-01-23T08:59:48.726Z,970.80
2019-01-23T09:00:48.640Z,970.82
2019-01-23T09:01:48.636Z,970.79
2019-01-23T09:02:48.598Z,970.80
2019-01-23T09:03:48.619Z,970.79
2019-01-23T09:04:48.636Z,970.78
2019-01-23T09:05:48.579Z,970.78
2019-01-23T09:06:48.611Z,970.78
2019-01-23T09:07:48.564Z,970.72
2019-01-23T09:08:48.536Z,970.77
2019-01-23T09:09:48.528Z,970.79
2019-01-23T09:10:48.519Z,970.80
2019-01-23T09:11:48.525Z,970.76
2019-01-23T09:12:48.511Z,970.81
2019-01-23T09:13:48.544Z,970.80
2019-01-23T09:14:48.495Z,970.82
2019-01-23T09:15:48.660Z,970.76
2019-01-23T09:16:48.492Z,970.79
2019-01-23T09:17:48.856Z,970.81
2019-01-23T09:18:48.433Z,970.83
2019-01-23T09:19:48.428Z,970.80
2019-01-23T09:20:49.278Z,970.74
2019-01-23T09:21:48.439Z,970.75
2019-01-23T09:22:48.486Z,970.77
2019-01-23T09:23:48.389Z,970.74
2019-01-23T09:24:48.417Z,970.74
2019-01-23T09:25:50.111Z,970.73
2019-01-23T09:26:48.355Z,970.71
2019-01-23T09:27:48.363Z,970.70
2019-01-23T09:28:48.457Z,970.66
2019-01-23T09:29:48.318Z,970.72
2019-01-23T09:30:52.589Z,970.73
2019-01-23T09:31:49.331Z,970.70
2019-01-23T09:32:48.346Z,970.67
2019-01-23T09:33:48.279Z,970.75
2019-01-23T09:34:48.323Z,970.75
2019-01-23T09:35:48.291Z,970.72
2019-01-23T09:36:48.308Z,970.82
2019-01-23T09:37:48.281Z,970.83
2019-01-23T09:38:48.263Z,970.84
2019-01-23T09:39:48.244Z,970.82
2019-01-23T09:40:48.267Z,970.83
2019-01-23T09:41:48.315Z,970.80
2019-01-23T09:42:48.300Z,970.83
2019-01-23T09:43:48.229Z,970.83
2019-01-23T09:44:48.198Z,970.83
2019-01-23T09:45:48.230Z,970.84
2019-01-23T09:46:48.145Z,970.85
2019-01-23T09:47:48.229Z,970.86
2019-01-23T09:48:48.179Z,970.88
2019-01-23T09:49:48.177Z,970.91
2019-01-23T09:50:48.313Z,970.91
2019-01-23T09:51:48.125Z,970.85
2019-01-23T09:52:48.190Z,970.85
2019-01-23T09:53:48.128Z,970.83
2019-01-23T09:54:48.172Z,970.80
2019-01-23T09:55:48.114Z,970.81
2019-01-23T09:56:48.153Z,970.79
2019-01-23T09:57:48.362Z,970.76
2019-01-23T09:58:48.022Z,970.83
2019-01-23T09:59:48.180Z,970.76
2019-01-23T10:00:48.026Z,970.80
2019-01-23T10:01:48.042Z,970.78
2019-01-23T10:02:48.387Z,970.79
2019-01-23T10:03:48.085Z,970.80
2019-01-23T10:04:47.964Z,970.79
2019-01-23T10:05:48.036Z,970.79
2019-01-23T10:06:48.125Z,970.81
2019-01-23T10:07:48.162Z,970.74
2019-01-23T10:08:48.848Z,970.78
2019-01-23T10:09:47.971Z,970.71
2019-01-23T10:10:47.907Z,970.76
2019-01-23T10:11:47.890Z,970.74
2019-01-23T10:12:47.880Z,970.75
2019-01-23T10:13:47.890Z,970.77
2019-01-23T10:14:47.931Z,970.73
2019-01-23T10:15:47.909Z,970.77
2019-01-23T10:16:47.848Z,970.72
2019-01-23T10:17:47.854Z,970.72
2019-01-23T10:18:47.933Z,970.71
2019-01-23T10:19:47.842Z,970.71
2019-01-23T10:20:47.808Z,970.75
2019-01-23T10:21:47.782Z,970.70
2019-01-23T10:22:47.829Z,970.69
2019-01-23T10:23:47.803Z,970.67
2019-01-23T10:24:47.753Z,970.72
2019-01-23T10:25:47.773Z,970.71
2019-01-23T10:26:47.838Z,970.68
2019-01-23T10:27:47.746Z,970.66
2019-01-23T10:28:47.781Z,970.66
2019-01-23T10:29:47.701Z,970.63
2019-01-23T10:30:47.689Z,970.61
2019-01-23T10:31:47.708Z,970.66
2019-01-23T10:32:47.678Z,970.62
2019-01-23T10:33:47.696Z,970.65
2019-01-23T10:34:47.648Z,970.67
2019-01-23T10:35:47.638Z,970.66
2019-01-23T10:36:47.705Z,970.65
2019-01-23T10:37:47.672Z,970.70
2019-01-23T10:38:47.858Z,970.55
2019-01-23T10:39:47.666Z,970.60
2019-01-23T10:40:47.629Z,970.55
2019-01-23T10:41:47.574Z,970.56
2019-01-23T10:42:47.645Z,970.52
2019-01-23T10:43:48.337Z,970.50
2019-01-23T10:44:47.545Z,970.52
2019-01-23T10:45:47.553Z,970.54
2019-01-23T10:46:47.598Z,970.52
2019-01-23T10:47:47.513Z,970.55
2019-01-23T10:48:47.534Z,970.54
2019-01-23T10:49:47.711Z,970.57
2019-01-23T10:50:47.668Z,970.55
2019-01-23T10:51:47.966Z,970.54
2019-01-23T10:52:47.752Z,970.60
2019-01-23T10:53:47.776Z,970.53
2019-01-23T10:54:48.758Z,970.52
2019-01-23T10:55:47.656Z,970.53
2019-01-23T10:56:48.335Z,970.53
2019-01-23T10:57:47.975Z,970.54
2019-01-23T10:58:48.303Z,970.53
2019-01-23T10:59:48.483Z,970.50
2019-01-23T11:00:47.446Z,970.54
2019-01-23T11:01:47.714Z,970.48
2019-01-23T11:02:47.904Z,970.50
2019-01-23T11:03:48.236Z,970.49
2019-01-23T11:04:47.755Z,970.50
2019-01-23T11:05:47.438Z,970.49
2019-01-23T11:06:47.327Z,970.46
2019-01-23T11:07:47.566Z,970.53
2019-01-23T11:08:48.864Z,970.45
2019-01-23T11:09:47.655Z,970.51
2019-01-23T11:10:47.283Z,970.49
2019-01-23T11:11:47.867Z,970.50
2019-01-23T11:12:48.300Z,970.51
2019-01-23T11:13:47.259Z,970.50
2019-01-23T11:14:47.469Z,970.46
2019-01-23T11:15:47.332Z,970.45
2019-01-23T11:16:47.224Z,970.46
2019-01-23T11:17:48.153Z,970.42
2019-01-23T11:18:49.815Z,970.44
2019-01-23T11:19:47.291Z,970.43
2019-01-23T11:20:47.256Z,970.46
2019-01-23T11:21:47.750Z,970.38
2019-01-23T11:22:47.182Z,970.41
2019-01-23T11:23:49.163Z,970.45
2019-01-23T11:24:47.641Z,970.46
2019-01-23T11:25:48.035Z,970.45
2019-01-23T11:26:47.208Z,970.45
2019-01-23T11:27:47.524Z,970.49
2019-01-23T11:28:47.157Z,970.46
2019-01-23T11:29:50.318Z,970.49
2019-01-23T11:30:48.230Z,970.49
2019-01-23T11:31:48.707Z,970.52
2019-01-23T11:32:48.261Z,970.53
2019-01-23T11:33:47.549Z,970.49
2019-01-23T11:34:47.872Z,970.49
2019-01-23T11:35:47.939Z,970.45
2019-01-23T11:36:47.947Z,970.41
2019-01-23T11:37:47.049Z,970.44
2019-01-23T11:38:47.334Z,970.43
2019-01-23T11:39:47.482Z,970.46
2019-01-23T11:40:47.275Z,970.41
2019-01-23T11:41:48.458Z,970.34
2019-01-23T11:42:47.161Z,970.39
2019-01-23T11:43:47.070Z,970.39
2019-01-23T11:44:48.417Z,970.33
2019-01-23T11:45:48.098Z,970.39
2019-01-23T11:46:46.903Z,970.33
2019-01-23T11:47:49.079Z,970.36
2019-01-23T11:48:46.921Z,970.47
2019-01-23T11:49:47.410Z,970.40
2019-01-23T11:50:47.043Z,970.37
2019-01-23T11:51:48.213Z,970.37
2019-01-23T11:52:47.871Z,970.32
2019-01-23T11:53:48.141Z,970.32
2019-01-23T11:54:47.664Z,970.32
2019-01-23T11:55:46.836Z,970.29
2019-01-23T11:56:47.869Z,970.20
2019-01-23T11:57:46.875Z,970.28
2019-01-23T11:58:47.857Z,970.23
2019-01-23T11:59:46.973Z,970.30
2019-01-23T12:00:46.933Z,970.24
2019-01-23T12:01:47.561Z,970.27
2019-01-23T12:02:50.243Z,970.22
2019-01-23T12:03:46.729Z,970.27
2019-01-23T12:04:47.739Z,970.21
2019-01-23T12:05:47.208Z,970.29
2019-01-23T12:06:46.843Z,970.28
2019-01-23T12:07:48.258Z,970.32
2019-01-23T12:08:47.339Z,970.25
2019-01-23T12:09:46.797Z,970.26
2019-01-23T12:10:46.755Z,970.31
2019-01-23T12:11:46.661Z,970.29
2019-01-23T12:12:47.446Z,970.25
2019-01-23T12:13:46.731Z,970.28
2019-01-23T12:14:47.904Z,970.30
2019-01-23T12:15:46.620Z,970.32
2019-01-23T12:16:46.799Z,970.32
2019-01-23T12:17:46.721Z,970.27
2019-01-23T12:18:47.016Z,970.25
2019-01-23T12:19:48.414Z,970.24
2019-01-23T12:20:47.668Z,970.27
2019-01-23T12:21:46.962Z,970.31
2019-01-23T12:22:48.207Z,970.34
2019-01-23T12:23:58.042Z,970.29
2019-01-23T12:24:47.619Z,970.29
2019-01-23T12:26:07.949Z,970.28
2019-01-23T12:26:46.527Z,970.23
2019-01-23T12:27:49.225Z,970.32
2019-01-23T12:28:47.390Z,970.31